sensor_id;sensor_type;location;lat;lon;timestamp;P1;durP1;ratioP1;P2;durP2;ratioP2
10132;SDS011;5106;50.926;7.080;2023-03-14T00:02:06;3.92;;;1.52;;
10132;SDS011;5106;50.926;7.080;2023-03-14T00:04:32;4.22;;;1.33;;
10132;SDS011;5106;50.926;7.080;2023-03-14T00:06:57;4.25;;;1.40;;
10132;SDS011;5106;50.926;7.080;2023-03-14T00:09:23;3.58;;;1.20;;
10132;SDS011;5106;50.926;7.080;2023-03-14T00:11:48;3.17;;;1.38;;
10132;SDS011;5106;50.926;7.080;2023-03-14T00:14:14;4.03;;;1.33;;
10132;SDS011;5106;50.926;7.080;2023-03-14T00:16:41;4.68;;;1.40;;
10132;SDS011;5106;50.926;7.080;2023-03-14T00:19:10;3.97;;;1.30;;
10132;SDS011;5106;50.926;7.080;2023-03-14T00:21:35;3.22;;;1.27;;
10132;SDS011;5106;50.926;7.080;2023-03-14T00:24:01;4.88;;;1.30;;
10132;SDS011;5106;50.926;7.080;2023-03-14T00:26:26;4.10;;;1.63;;
10132;SDS011;5106;50.926;7.080;2023-03-14T00:28:53;3.15;;;1.30;;
10132;SDS011;5106;50.926;7.080;2023-03-14T00:31:19;2.47;;;1.20;;
10132;SDS011;5106;50.926;7.080;2023-03-14T00:33:45;4.13;;;1.10;;
10132;SDS011;5106;50.926;7.080;2023-03-14T00:36:12;3.17;;;1.50;;
10132;SDS011;5106;50.926;7.080;2023-03-14T00:38:39;3.90;;;1.40;;
10132;SDS011;5106;50.926;7.080;2023-03-14T00:41:07;4.10;;;1.30;;
10132;SDS011;5106;50.926;7.080;2023-03-14T00:43:34;4.30;;;1.30;;
10132;SDS011;5106;50.926;7.080;2023-03-14T00:46:00;3.42;;;1.40;;
10132;SDS011;5106;50.926;7.080;2023-03-14T00:48:26;3.47;;;1.38;;
10132;SDS011;5106;50.926;7.080;2023-03-14T00:50:52;3.55;;;1.58;;
10132;SDS011;5106;50.926;7.080;2023-03-14T00:53:17;2.97;;;1.30;;
10132;SDS011;5106;50.926;7.080;2023-03-14T00:55:43;3.97;;;1.25;;
10132;SDS011;5106;50.926;7.080;2023-03-14T00:58:10;5.75;;;1.60;;
10132;SDS011;5106;50.926;7.080;2023-03-14T01:00:37;3.92;;;1.70;;
10132;SDS011;5106;50.926;7.080;2023-03-14T01:03:04;6.53;;;1.65;;
10132;SDS011;5106;50.926;7.080;2023-03-14T01:05:30;5.07;;;1.50;;
10132;SDS011;5106;50.926;7.080;2023-03-14T01:07:55;4.93;;;1.55;;
10132;SDS011;5106;50.926;7.080;2023-03-14T01:10:21;4.40;;;1.40;;
10132;SDS011;5106;50.926;7.080;2023-03-14T01:12:47;3.65;;;1.38;;
10132;SDS011;5106;50.926;7.080;2023-03-14T01:15:13;4.95;;;1.27;;
10132;SDS011;5106;50.926;7.080;2023-03-14T01:17:39;7.68;;;1.73;;
10132;SDS011;5106;50.926;7.080;2023-03-14T01:20:05;3.28;;;1.40;;
10132;SDS011;5106;50.926;7.080;2023-03-14T01:22:34;4.60;;;1.45;;
10132;SDS011;5106;50.926;7.080;2023-03-14T01:25:05;3.17;;;1.30;;
10132;SDS011;5106;50.926;7.080;2023-03-14T01:27:35;2.72;;;1.33;;
10132;SDS011;5106;50.926;7.080;2023-03-14T01:30:00;6.05;;;1.35;;
10132;SDS011;5106;50.926;7.080;2023-03-14T01:32:27;4.97;;;1.50;;
10132;SDS011;5106;50.926;7.080;2023-03-14T01:34:52;4.50;;;1.35;;
10132;SDS011;5106;50.926;7.080;2023-03-14T01:37:18;4.38;;;1.30;;
10132;SDS011;5106;50.926;7.080;2023-03-14T01:39:43;4.75;;;1.58;;
10132;SDS011;5106;50.926;7.080;2023-03-14T01:42:11;4.95;;;1.42;;
10132;SDS011;5106;50.926;7.080;2023-03-14T01:47:19;5.95;;;1.58;;
10132;SDS011;5106;50.926;7.080;2023-03-14T01:49:55;4.53;;;1.58;;
10132;SDS011;5106;50.926;7.080;2023-03-14T01:52:27;3.90;;;1.33;;
10132;SDS011;5106;50.926;7.080;2023-03-14T01:55:21;2.25;;;1.02;;
10132;SDS011;5106;50.926;7.080;2023-03-14T01:57:47;5.18;;;1.30;;
10132;SDS011;5106;50.926;7.080;2023-03-14T02:00:21;4.72;;;1.20;;
10132;SDS011;5106;50.926;7.080;2023-03-14T02:02:48;3.55;;;1.00;;
10132;SDS011;5106;50.926;7.080;2023-03-14T02:05:20;1.83;;;0.80;;
10132;SDS011;5106;50.926;7.080;2023-03-14T02:07:50;2.53;;;1.10;;
10132;SDS011;5106;50.926;7.080;2023-03-14T02:10:18;3.10;;;1.10;;
10132;SDS011;5106;50.926;7.080;2023-03-14T02:12:49;2.47;;;1.08;;
10132;SDS011;5106;50.926;7.080;2023-03-14T02:15:16;2.08;;;0.90;;
10132;SDS011;5106;50.926;7.080;2023-03-14T02:17:42;4.20;;;1.13;;
10132;SDS011;5106;50.926;7.080;2023-03-14T02:22:42;3.15;;;1.30;;
10132;SDS011;5106;50.926;7.080;2023-03-14T02:25:12;3.50;;;1.55;;
10132;SDS011;5106;50.926;7.080;2023-03-14T02:27:49;3.90;;;0.93;;
10132;SDS011;5106;50.926;7.080;2023-03-14T02:30:17;2.50;;;0.95;;
10132;SDS011;5106;50.926;7.080;2023-03-14T02:32:48;3.53;;;1.00;;
10132;SDS011;5106;50.926;7.080;2023-03-14T02:35:28;1.63;;;0.88;;
10132;SDS011;5106;50.926;7.080;2023-03-14T02:38:00;3.90;;;1.10;;
10132;SDS011;5106;50.926;7.080;2023-03-14T02:40:35;2.30;;;0.77;;
10132;SDS011;5106;50.926;7.080;2023-03-14T02:43:01;1.75;;;0.73;;
10132;SDS011;5106;50.926;7.080;2023-03-14T02:45:37;2.08;;;0.88;;
10132;SDS011;5106;50.926;7.080;2023-03-14T02:48:07;2.83;;;0.77;;
10132;SDS011;5106;50.926;7.080;2023-03-14T02:50:37;1.38;;;0.80;;
10132;SDS011;5106;50.926;7.080;2023-03-14T02:53:03;4.05;;;1.20;;
10132;SDS011;5106;50.926;7.080;2023-03-14T02:55:29;2.05;;;0.75;;
10132;SDS011;5106;50.926;7.080;2023-03-14T02:57:55;3.60;;;1.10;;
10132;SDS011;5106;50.926;7.080;2023-03-14T03:00:20;2.63;;;0.90;;
10132;SDS011;5106;50.926;7.080;2023-03-14T03:02:46;2.80;;;0.80;;
10132;SDS011;5106;50.926;7.080;2023-03-14T03:05:12;2.22;;;0.82;;
10132;SDS011;5106;50.926;7.080;2023-03-14T03:07:37;2.20;;;1.15;;
10132;SDS011;5106;50.926;7.080;2023-03-14T03:10:03;2.08;;;0.77;;
10132;SDS011;5106;50.926;7.080;2023-03-14T03:12:29;2.33;;;0.77;;
10132;SDS011;5106;50.926;7.080;2023-03-14T03:14:55;2.92;;;1.10;;
10132;SDS011;5106;50.926;7.080;2023-03-14T03:17:21;1.65;;;0.77;;
10132;SDS011;5106;50.926;7.080;2023-03-14T03:19:46;2.50;;;1.30;;
10132;SDS011;5106;50.926;7.080;2023-03-14T03:22:12;2.53;;;1.05;;
10132;SDS011;5106;50.926;7.080;2023-03-14T03:24:37;6.57;;;1.25;;
10132;SDS011;5106;50.926;7.080;2023-03-14T03:27:03;2.22;;;1.00;;
10132;SDS011;5106;50.926;7.080;2023-03-14T03:29:28;4.82;;;1.20;;
10132;SDS011;5106;50.926;7.080;2023-03-14T03:31:55;3.05;;;1.35;;
10132;SDS011;5106;50.926;7.080;2023-03-14T03:34:20;2.83;;;0.95;;
10132;SDS011;5106;50.926;7.080;2023-03-14T03:36:46;3.25;;;1.08;;
10132;SDS011;5106;50.926;7.080;2023-03-14T03:39:11;2.75;;;1.20;;
10132;SDS011;5106;50.926;7.080;2023-03-14T03:41:37;4.35;;;1.20;;
10132;SDS011;5106;50.926;7.080;2023-03-14T03:44:03;3.25;;;1.20;;
10132;SDS011;5106;50.926;7.080;2023-03-14T03:46:28;4.23;;;1.23;;
10132;SDS011;5106;50.926;7.080;2023-03-14T03:48:58;5.07;;;1.10;;
10132;SDS011;5106;50.926;7.080;2023-03-14T03:51:24;5.20;;;1.33;;
10132;SDS011;5106;50.926;7.080;2023-03-14T03:53:50;5.68;;;1.27;;
10132;SDS011;5106;50.926;7.080;2023-03-14T03:56:16;3.65;;;1.30;;
10132;SDS011;5106;50.926;7.080;2023-03-14T03:58:41;4.38;;;1.27;;
10132;SDS011;5106;50.926;7.080;2023-03-14T04:01:07;3.97;;;1.67;;
10132;SDS011;5106;50.926;7.080;2023-03-14T04:03:34;5.05;;;1.60;;
10132;SDS011;5106;50.926;7.080;2023-03-14T04:06:00;3.47;;;1.50;;
10132;SDS011;5106;50.926;7.080;2023-03-14T04:08:28;6.05;;;1.60;;
10132;SDS011;5106;50.926;7.080;2023-03-14T04:10:55;7.35;;;1.80;;
10132;SDS011;5106;50.926;7.080;2023-03-14T04:13:22;4.85;;;1.90;;
10132;SDS011;5106;50.926;7.080;2023-03-14T04:15:49;7.75;;;1.80;;
10132;SDS011;5106;50.926;7.080;2023-03-14T04:18:15;6.10;;;1.70;;
10132;SDS011;5106;50.926;7.080;2023-03-14T04:20:41;7.22;;;1.88;;
10132;SDS011;5106;50.926;7.080;2023-03-14T04:23:06;5.18;;;1.52;;
10132;SDS011;5106;50.926;7.080;2023-03-14T04:25:32;3.97;;;1.15;;
10132;SDS011;5106;50.926;7.080;2023-03-14T04:27:57;5.75;;;1.50;;
10132;SDS011;5106;50.926;7.080;2023-03-14T04:30:23;6.60;;;1.58;;
10132;SDS011;5106;50.926;7.080;2023-03-14T04:32:49;5.47;;;1.58;;
10132;SDS011;5106;50.926;7.080;2023-03-14T04:35:18;5.50;;;1.60;;
10132;SDS011;5106;50.926;7.080;2023-03-14T04:37:44;4.47;;;1.67;;
10132;SDS011;5106;50.926;7.080;2023-03-14T04:40:10;4.68;;;1.55;;
10132;SDS011;5106;50.926;7.080;2023-03-14T04:42:36;5.28;;;1.25;;
10132;SDS011;5106;50.926;7.080;2023-03-14T04:45:02;6.97;;;1.65;;
10132;SDS011;5106;50.926;7.080;2023-03-14T04:47:27;9.90;;;1.40;;
10132;SDS011;5106;50.926;7.080;2023-03-14T04:49:53;5.57;;;1.35;;
10132;SDS011;5106;50.926;7.080;2023-03-14T04:52:19;4.43;;;1.57;;
10132;SDS011;5106;50.926;7.080;2023-03-14T04:54:45;7.07;;;1.63;;
10132;SDS011;5106;50.926;7.080;2023-03-14T04:57:10;4.47;;;1.52;;
10132;SDS011;5106;50.926;7.080;2023-03-14T04:59:36;7.45;;;1.42;;
10132;SDS011;5106;50.926;7.080;2023-03-14T05:02:01;4.07;;;1.50;;
10132;SDS011;5106;50.926;7.080;2023-03-14T05:04:27;5.13;;;1.52;;
10132;SDS011;5106;50.926;7.080;2023-03-14T05:06:54;3.53;;;1.00;;
10132;SDS011;5106;50.926;7.080;2023-03-14T05:09:19;2.58;;;1.17;;
10132;SDS011;5106;50.926;7.080;2023-03-14T05:11:45;4.20;;;1.30;;
10132;SDS011;5106;50.926;7.080;2023-03-14T05:14:11;3.30;;;1.57;;
10132;SDS011;5106;50.926;7.080;2023-03-14T05:16:36;4.35;;;1.30;;
10132;SDS011;5106;50.926;7.080;2023-03-14T05:19:02;4.13;;;1.13;;
10132;SDS011;5106;50.926;7.080;2023-03-14T05:21:27;3.92;;;1.55;;
10132;SDS011;5106;50.926;7.080;2023-03-14T05:23:53;2.83;;;1.17;;
10132;SDS011;5106;50.926;7.080;2023-03-14T05:26:18;2.55;;;0.90;;
10132;SDS011;5106;50.926;7.080;2023-03-14T05:28:44;3.28;;;1.00;;
10132;SDS011;5106;50.926;7.080;2023-03-14T05:31:10;2.58;;;0.88;;
10132;SDS011;5106;50.926;7.080;2023-03-14T05:33:35;2.67;;;1.00;;
10132;SDS011;5106;50.926;7.080;2023-03-14T05:36:01;2.47;;;0.90;;
10132;SDS011;5106;50.926;7.080;2023-03-14T05:38:27;3.15;;;0.90;;
10132;SDS011;5106;50.926;7.080;2023-03-14T05:40:53;1.38;;;0.80;;
10132;SDS011;5106;50.926;7.080;2023-03-14T05:43:18;3.30;;;0.98;;
10132;SDS011;5106;50.926;7.080;2023-03-14T05:45:44;2.00;;;0.90;;
10132;SDS011;5106;50.926;7.080;2023-03-14T05:48:09;0.90;;;0.60;;
10132;SDS011;5106;50.926;7.080;2023-03-14T05:50:35;2.17;;;0.80;;
10132;SDS011;5106;50.926;7.080;2023-03-14T05:53:01;1.43;;;0.57;;
10132;SDS011;5106;50.926;7.080;2023-03-14T05:55:26;0.98;;;0.40;;
10132;SDS011;5106;50.926;7.080;2023-03-14T05:57:53;1.95;;;0.68;;
10132;SDS011;5106;50.926;7.080;2023-03-14T06:00:19;0.70;;;0.50;;
10132;SDS011;5106;50.926;7.080;2023-03-14T06:02:45;0.85;;;0.60;;
10132;SDS011;5106;50.926;7.080;2023-03-14T06:05:11;2.00;;;0.70;;
10132;SDS011;5106;50.926;7.080;2023-03-14T06:07:37;1.02;;;0.52;;
10132;SDS011;5106;50.926;7.080;2023-03-14T06:10:03;0.40;;;0.40;;
10132;SDS011;5106;50.926;7.080;2023-03-14T06:12:30;0.45;;;0.43;;
10132;SDS011;5106;50.926;7.080;2023-03-14T06:14:56;0.57;;;0.50;;
10132;SDS011;5106;50.926;7.080;2023-03-14T06:17:21;0.33;;;0.30;;
10132;SDS011;5106;50.926;7.080;2023-03-14T06:19:47;1.50;;;0.60;;
10132;SDS011;5106;50.926;7.080;2023-03-14T06:22:13;0.68;;;0.50;;
10132;SDS011;5106;50.926;7.080;2023-03-14T06:24:38;0.95;;;0.40;;
10132;SDS011;5106;50.926;7.080;2023-03-14T06:27:04;1.05;;;0.50;;
10132;SDS011;5106;50.926;7.080;2023-03-14T06:29:30;1.52;;;0.45;;
10132;SDS011;5106;50.926;7.080;2023-03-14T06:31:56;0.50;;;0.40;;
10132;SDS011;5106;50.926;7.080;2023-03-14T06:34:21;1.65;;;0.70;;
10132;SDS011;5106;50.926;7.080;2023-03-14T06:36:47;1.00;;;0.50;;
10132;SDS011;5106;50.926;7.080;2023-03-14T06:39:12;1.17;;;0.52;;
10132;SDS011;5106;50.926;7.080;2023-03-14T06:41:38;0.40;;;0.40;;
10132;SDS011;5106;50.926;7.080;2023-03-14T06:44:04;1.55;;;0.63;;
10132;SDS011;5106;50.926;7.080;2023-03-14T06:46:30;0.77;;;0.55;;
10132;SDS011;5106;50.926;7.080;2023-03-14T06:48:55;1.67;;;0.60;;
10132;SDS011;5106;50.926;7.080;2023-03-14T06:51:21;1.92;;;0.45;;
10132;SDS011;5106;50.926;7.080;2023-03-14T06:53:47;1.40;;;0.77;;
10132;SDS011;5106;50.926;7.080;2023-03-14T06:56:12;1.95;;;0.55;;
10132;SDS011;5106;50.926;7.080;2023-03-14T06:58:38;1.23;;;0.60;;
10132;SDS011;5106;50.926;7.080;2023-03-14T07:01:04;0.63;;;0.40;;
10132;SDS011;5106;50.926;7.080;2023-03-14T07:03:30;2.20;;;0.50;;
10132;SDS011;5106;50.926;7.080;2023-03-14T07:05:55;0.50;;;0.30;;
10132;SDS011;5106;50.926;7.080;2023-03-14T07:08:21;0.85;;;0.52;;
10132;SDS011;5106;50.926;7.080;2023-03-14T07:10:47;0.40;;;0.20;;
10132;SDS011;5106;50.926;7.080;2023-03-14T07:13:12;1.35;;;0.35;;
10132;SDS011;5106;50.926;7.080;2023-03-14T07:15:38;0.50;;;0.30;;
10132;SDS011;5106;50.926;7.080;2023-03-14T07:18:04;0.82;;;0.30;;
10132;SDS011;5106;50.926;7.080;2023-03-14T07:20:29;1.52;;;0.35;;
10132;SDS011;5106;50.926;7.080;2023-03-14T07:22:57;1.48;;;0.30;;
10132;SDS011;5106;50.926;7.080;2023-03-14T07:25:25;0.90;;;0.40;;
10132;SDS011;5106;50.926;7.080;2023-03-14T07:27:51;0.50;;;0.30;;
10132;SDS011;5106;50.926;7.080;2023-03-14T07:30:17;0.63;;;0.30;;
10132;SDS011;5106;50.926;7.080;2023-03-14T07:32:42;0.40;;;0.35;;
10132;SDS011;5106;50.926;7.080;2023-03-14T07:35:08;0.52;;;0.35;;
10132;SDS011;5106;50.926;7.080;2023-03-14T07:37:34;0.30;;;0.30;;
10132;SDS011;5106;50.926;7.080;2023-03-14T07:40:00;0.93;;;0.40;;
10132;SDS011;5106;50.926;7.080;2023-03-14T07:42:25;1.45;;;0.30;;
10132;SDS011;5106;50.926;7.080;2023-03-14T07:44:51;1.08;;;0.32;;
10132;SDS011;5106;50.926;7.080;2023-03-14T07:47:16;1.17;;;0.30;;
10132;SDS011;5106;50.926;7.080;2023-03-14T07:49:42;0.90;;;0.60;;
10132;SDS011;5106;50.926;7.080;2023-03-14T07:52:08;1.25;;;0.55;;
10132;SDS011;5106;50.926;7.080;2023-03-14T07:54:33;0.43;;;0.40;;
10132;SDS011;5106;50.926;7.080;2023-03-14T07:56:59;0.50;;;0.40;;
10132;SDS011;5106;50.926;7.080;2023-03-14T07:59:26;0.55;;;0.47;;
10132;SDS011;5106;50.926;7.080;2023-03-14T08:01:52;0.65;;;0.50;;
10132;SDS011;5106;50.926;7.080;2023-03-14T08:04:17;1.55;;;0.68;;
10132;SDS011;5106;50.926;7.080;2023-03-14T08:06:43;0.63;;;0.50;;
10132;SDS011;5106;50.926;7.080;2023-03-14T08:09:09;0.40;;;0.40;;
10132;SDS011;5106;50.926;7.080;2023-03-14T08:11:34;0.70;;;0.47;;
10132;SDS011;5106;50.926;7.080;2023-03-14T08:14:00;1.20;;;0.70;;
10132;SDS011;5106;50.926;7.080;2023-03-14T08:16:26;0.40;;;0.30;;
10132;SDS011;5106;50.926;7.080;2023-03-14T08:18:51;0.60;;;0.40;;
10132;SDS011;5106;50.926;7.080;2023-03-14T08:21:17;0.70;;;0.40;;
10132;SDS011;5106;50.926;7.080;2023-03-14T08:23:42;0.50;;;0.35;;
10132;SDS011;5106;50.926;7.080;2023-03-14T08:26:08;0.30;;;0.30;;
10132;SDS011;5106;50.926;7.080;2023-03-14T08:28:34;1.00;;;0.60;;
10132;SDS011;5106;50.926;7.080;2023-03-14T08:31:00;0.70;;;0.32;;
10132;SDS011;5106;50.926;7.080;2023-03-14T08:33:26;0.60;;;0.40;;
10132;SDS011;5106;50.926;7.080;2023-03-14T08:35:54;0.20;;;0.20;;
10132;SDS011;5106;50.926;7.080;2023-03-14T08:38:20;0.30;;;0.20;;
10132;SDS011;5106;50.926;7.080;2023-03-14T08:40:46;0.40;;;0.40;;
10132;SDS011;5106;50.926;7.080;2023-03-14T08:43:11;0.40;;;0.40;;
10132;SDS011;5106;50.926;7.080;2023-03-14T08:45:37;0.25;;;0.25;;
10132;SDS011;5106;50.926;7.080;2023-03-14T08:48:03;0.38;;;0.30;;
10132;SDS011;5106;50.926;7.080;2023-03-14T08:50:28;0.70;;;0.40;;
10132;SDS011;5106;50.926;7.080;2023-03-14T08:52:54;0.30;;;0.30;;
10132;SDS011;5106;50.926;7.080;2023-03-14T08:55:20;0.68;;;0.40;;
10132;SDS011;5106;50.926;7.080;2023-03-14T08:57:46;0.35;;;0.30;;
10132;SDS011;5106;50.926;7.080;2023-03-14T09:00:12;0.20;;;0.20;;
10132;SDS011;5106;50.926;7.080;2023-03-14T09:02:40;0.68;;;0.30;;
10132;SDS011;5106;50.926;7.080;2023-03-14T09:05:09;0.50;;;0.38;;
10132;SDS011;5106;50.926;7.080;2023-03-14T09:07:35;0.70;;;0.50;;
10132;SDS011;5106;50.926;7.080;2023-03-14T09:10:01;0.47;;;0.40;;
10132;SDS011;5106;50.926;7.080;2023-03-14T09:12:26;0.35;;;0.32;;
10132;SDS011;5106;50.926;7.080;2023-03-14T09:14:52;0.50;;;0.40;;
10132;SDS011;5106;50.926;7.080;2023-03-14T09:17:18;0.47;;;0.40;;
10132;SDS011;5106;50.926;7.080;2023-03-14T09:19:43;1.10;;;0.60;;
10132;SDS011;5106;50.926;7.080;2023-03-14T09:22:09;0.95;;;0.40;;
10132;SDS011;5106;50.926;7.080;2023-03-14T09:24:34;1.85;;;0.60;;
10132;SDS011;5106;50.926;7.080;2023-03-14T09:27:00;2.65;;;0.60;;
10132;SDS011;5106;50.926;7.080;2023-03-14T09:29:25;1.02;;;0.60;;
10132;SDS011;5106;50.926;7.080;2023-03-14T09:31:51;0.82;;;0.47;;
10132;SDS011;5106;50.926;7.080;2023-03-14T09:34:17;1.50;;;0.70;;
10132;SDS011;5106;50.926;7.080;2023-03-14T09:36:42;2.35;;;1.00;;
10132;SDS011;5106;50.926;7.080;2023-03-14T09:39:09;1.08;;;0.68;;
10132;SDS011;5106;50.926;7.080;2023-03-14T09:41:39;3.47;;;0.90;;
10132;SDS011;5106;50.926;7.080;2023-03-14T09:46:39;1.80;;;0.80;;
10132;SDS011;5106;50.926;7.080;2023-03-14T09:49:09;3.72;;;0.73;;
10132;SDS011;5106;50.926;7.080;2023-03-14T09:51:39;1.52;;;0.93;;
10132;SDS011;5106;50.926;7.080;2023-03-14T09:54:05;1.83;;;0.73;;
10132;SDS011;5106;50.926;7.080;2023-03-14T09:56:40;1.27;;;0.70;;
10132;SDS011;5106;50.926;7.080;2023-03-14T09:59:05;0.87;;;0.77;;
10132;SDS011;5106;50.926;7.080;2023-03-14T10:01:38;1.57;;;1.10;;
10132;SDS011;5106;50.926;7.080;2023-03-14T10:04:05;1.73;;;0.93;;
10132;SDS011;5106;50.926;7.080;2023-03-14T10:06:35;2.33;;;1.03;;
10132;SDS011;5106;50.926;7.080;2023-03-14T10:09:01;1.37;;;1.00;;
10132;SDS011;5106;50.926;7.080;2023-03-14T10:11:28;1.57;;;1.07;;
10132;SDS011;5106;50.926;7.080;2023-03-14T10:16:39;1.50;;;1.10;;
10132;SDS011;5106;50.926;7.080;2023-03-14T10:19:10;1.53;;;1.17;;
10132;SDS011;5106;50.926;7.080;2023-03-14T10:21:39;1.80;;;1.20;;
10132;SDS011;5106;50.926;7.080;2023-03-14T10:24:09;2.10;;;1.50;;
10132;SDS011;5106;50.926;7.080;2023-03-14T10:26:53;1.70;;;1.53;;
10132;SDS011;5106;50.926;7.080;2023-03-14T10:29:19;3.50;;;1.70;;
10132;SDS011;5106;50.926;7.080;2023-03-14T10:34:15;2.90;;;1.80;;
10132;SDS011;5106;50.926;7.080;2023-03-14T10:36:45;2.03;;;1.63;;
10132;SDS011;5106;50.926;7.080;2023-03-14T10:41:47;2.23;;;1.90;;
10132;SDS011;5106;50.926;7.080;2023-03-14T10:44:15;3.23;;;1.70;;
10132;SDS011;5106;50.926;7.080;2023-03-14T10:46:44;3.07;;;1.77;;
10132;SDS011;5106;50.926;7.080;2023-03-14T10:49:15;3.00;;;1.97;;
10132;SDS011;5106;50.926;7.080;2023-03-14T10:51:53;2.23;;;1.77;;
10132;SDS011;5106;50.926;7.080;2023-03-14T10:54:20;2.97;;;1.77;;
10132;SDS011;5106;50.926;7.080;2023-03-14T10:56:55;4.90;;;1.77;;
10132;SDS011;5106;50.926;7.080;2023-03-14T10:59:27;1.77;;;1.50;;
10132;SDS011;5106;50.926;7.080;2023-03-14T11:02:04;3.37;;;1.83;;
10132;SDS011;5106;50.926;7.080;2023-03-14T11:07:42;1.70;;;1.60;;
10132;SDS011;5106;50.926;7.080;2023-03-14T11:28:57;2.87;;;2.27;;
10132;SDS011;5106;50.926;7.080;2023-03-14T11:31:33;3.03;;;2.20;;
10132;SDS011;5106;50.926;7.080;2023-03-14T11:34:07;2.63;;;2.03;;
10132;SDS011;5106;50.926;7.080;2023-03-14T11:36:39;4.47;;;2.30;;
10132;SDS011;5106;50.926;7.080;2023-03-14T11:39:24;2.10;;;1.90;;
10132;SDS011;5106;50.926;7.080;2023-03-14T11:41:57;3.63;;;2.00;;
10132;SDS011;5106;50.926;7.080;2023-03-14T11:44:30;2.00;;;1.80;;
10132;SDS011;5106;50.926;7.080;2023-03-14T11:47:00;2.27;;;1.87;;
10132;SDS011;5106;50.926;7.080;2023-03-14T11:49:43;2.00;;;1.43;;
10132;SDS011;5106;50.926;7.080;2023-03-14T11:52:20;1.50;;;0.90;;
10132;SDS011;5106;50.926;7.080;2023-03-14T11:55:02;0.60;;;0.60;;
10132;SDS011;5106;50.926;7.080;2023-03-14T11:57:51;0.60;;;0.50;;
10132;SDS011;5106;50.926;7.080;2023-03-14T12:00:19;1.77;;;0.70;;
10132;SDS011;5106;50.926;7.080;2023-03-14T12:10:29;1.50;;;0.70;;
10132;SDS011;5106;50.926;7.080;2023-03-14T12:12:55;0.83;;;0.80;;
10132;SDS011;5106;50.926;7.080;2023-03-14T12:15:22;2.50;;;0.90;;
10132;SDS011;5106;50.926;7.080;2023-03-14T12:17:53;1.57;;;0.90;;
10132;SDS011;5106;50.926;7.080;2023-03-14T12:20:24;3.30;;;1.20;;
10132;SDS011;5106;50.926;7.080;2023-03-14T12:25:26;1.57;;;1.30;;
10132;SDS011;5106;50.926;7.080;2023-03-14T12:30:29;3.03;;;1.80;;
10132;SDS011;5106;50.926;7.080;2023-03-14T12:35:47;3.60;;;3.00;;
10132;SDS011;5106;50.926;7.080;2023-03-14T12:38:32;4.00;;;2.20;;
10132;SDS011;5106;50.926;7.080;2023-03-14T12:41:20;3.90;;;2.70;;
10132;SDS011;5106;50.926;7.080;2023-03-14T12:43:54;4.07;;;2.60;;
10132;SDS011;5106;50.926;7.080;2023-03-14T12:46:26;5.33;;;2.33;;
10132;SDS011;5106;50.926;7.080;2023-03-14T12:51:37;4.80;;;2.17;;
10132;SDS011;5106;50.926;7.080;2023-03-14T12:59:46;2.60;;;2.00;;
10132;SDS011;5106;50.926;7.080;2023-03-14T13:02:23;3.77;;;1.83;;
10132;SDS011;5106;50.926;7.080;2023-03-14T13:05:11;5.27;;;2.10;;
10132;SDS011;5106;50.926;7.080;2023-03-14T13:12:55;3.00;;;1.70;;
10132;SDS011;5106;50.926;7.080;2023-03-14T13:15:38;4.63;;;1.80;;
10132;SDS011;5106;50.926;7.080;2023-03-14T13:20:38;2.50;;;1.60;;
10132;SDS011;5106;50.926;7.080;2023-03-14T13:23:22;4.00;;;2.27;;
10132;SDS011;5106;50.926;7.080;2023-03-14T13:25:50;3.87;;;1.80;;
10132;SDS011;5106;50.926;7.080;2023-03-14T13:28:16;3.73;;;1.83;;
10132;SDS011;5106;50.926;7.080;2023-03-14T13:30:43;3.90;;;1.30;;
10132;SDS011;5106;50.926;7.080;2023-03-14T13:33:12;4.43;;;1.40;;
10132;SDS011;5106;50.926;7.080;2023-03-14T13:35:41;2.73;;;1.40;;
10132;SDS011;5106;50.926;7.080;2023-03-14T13:38:15;4.77;;;1.20;;
10132;SDS011;5106;50.926;7.080;2023-03-14T13:40:46;3.13;;;1.37;;
10132;SDS011;5106;50.926;7.080;2023-03-14T13:43:14;4.20;;;1.23;;
10132;SDS011;5106;50.926;7.080;2023-03-14T13:45:48;3.70;;;1.30;;
10132;SDS011;5106;50.926;7.080;2023-03-14T13:48:15;3.43;;;1.20;;
10132;SDS011;5106;50.926;7.080;2023-03-14T13:50:52;5.27;;;1.30;;
10132;SDS011;5106;50.926;7.080;2023-03-14T13:53:24;4.13;;;1.37;;
10132;SDS011;5106;50.926;7.080;2023-03-14T13:55:50;2.23;;;1.37;;
10132;SDS011;5106;50.926;7.080;2023-03-14T13:58:34;2.17;;;0.97;;
10132;SDS011;5106;50.926;7.080;2023-03-14T14:01:04;2.77;;;0.90;;
10132;SDS011;5106;50.926;7.080;2023-03-14T14:03:36;2.40;;;1.17;;
10132;SDS011;5106;50.926;7.080;2023-03-14T14:06:04;3.03;;;1.40;;
10132;SDS011;5106;50.926;7.080;2023-03-14T14:08:41;5.87;;;2.00;;
10132;SDS011;5106;50.926;7.080;2023-03-14T14:11:08;3.73;;;1.73;;
10132;SDS011;5106;50.926;7.080;2023-03-14T14:13:44;4.30;;;1.60;;
10132;SDS011;5106;50.926;7.080;2023-03-14T14:16:10;4.37;;;2.00;;
10132;SDS011;5106;50.926;7.080;2023-03-14T14:18:46;6.33;;;2.13;;
10132;SDS011;5106;50.926;7.080;2023-03-14T14:21:12;5.90;;;2.10;;
10132;SDS011;5106;50.926;7.080;2023-03-14T14:23:39;5.70;;;2.10;;
10132;SDS011;5106;50.926;7.080;2023-03-14T14:26:05;5.83;;;2.30;;
10132;SDS011;5106;50.926;7.080;2023-03-14T14:28:32;4.57;;;2.30;;
10132;SDS011;5106;50.926;7.080;2023-03-14T14:36:29;7.33;;;3.03;;
10132;SDS011;5106;50.926;7.080;2023-03-14T14:39:11;9.87;;;3.03;;
10132;SDS011;5106;50.926;7.080;2023-03-14T14:41:45;7.40;;;1.77;;
10132;SDS011;5106;50.926;7.080;2023-03-14T14:44:16;4.63;;;1.50;;
10132;SDS011;5106;50.926;7.080;2023-03-14T14:46:43;7.77;;;1.80;;
10132;SDS011;5106;50.926;7.080;2023-03-14T14:49:10;8.10;;;1.97;;
10132;SDS011;5106;50.926;7.080;2023-03-14T14:51:44;11.70;;;2.27;;
10132;SDS011;5106;50.926;7.080;2023-03-14T14:54:14;7.47;;;1.73;;
10132;SDS011;5106;50.926;7.080;2023-03-14T14:56:40;4.90;;;1.90;;
10132;SDS011;5106;50.926;7.080;2023-03-14T14:59:20;5.67;;;2.43;;
10132;SDS011;5106;50.926;7.080;2023-03-14T15:01:47;6.77;;;2.30;;
10132;SDS011;5106;50.926;7.080;2023-03-14T15:04:15;8.70;;;2.57;;
10132;SDS011;5106;50.926;7.080;2023-03-14T15:06:44;7.37;;;2.73;;
10132;SDS011;5106;50.926;7.080;2023-03-14T15:09:13;7.93;;;2.70;;
10132;SDS011;5106;50.926;7.080;2023-03-14T15:11:38;10.53;;;3.10;;
10132;SDS011;5106;50.926;7.080;2023-03-14T15:14:04;8.13;;;2.73;;
10132;SDS011;5106;50.926;7.080;2023-03-14T15:16:31;6.90;;;2.73;;
10132;SDS011;5106;50.926;7.080;2023-03-14T15:18:58;10.80;;;2.93;;
10132;SDS011;5106;50.926;7.080;2023-03-14T15:21:26;11.83;;;3.23;;
10132;SDS011;5106;50.926;7.080;2023-03-14T15:23:53;7.33;;;2.57;;
10132;SDS011;5106;50.926;7.080;2023-03-14T15:26:28;9.63;;;3.13;;
10132;SDS011;5106;50.926;7.080;2023-03-14T15:28:54;9.50;;;3.20;;
10132;SDS011;5106;50.926;7.080;2023-03-14T15:31:20;9.93;;;2.90;;
10132;SDS011;5106;50.926;7.080;2023-03-14T15:33:46;8.87;;;2.80;;
10132;SDS011;5106;50.926;7.080;2023-03-14T15:38:44;10.83;;;2.90;;
10132;SDS011;5106;50.926;7.080;2023-03-14T15:41:09;11.77;;;2.83;;
10132;SDS011;5106;50.926;7.080;2023-03-14T15:43:35;8.20;;;2.43;;
10132;SDS011;5106;50.926;7.080;2023-03-14T15:46:01;8.93;;;2.53;;
10132;SDS011;5106;50.926;7.080;2023-03-14T15:48:26;10.17;;;2.37;;
10132;SDS011;5106;50.926;7.080;2023-03-14T15:50:52;12.93;;;2.63;;
10132;SDS011;5106;50.926;7.080;2023-03-14T15:53:17;12.23;;;2.50;;
10132;SDS011;5106;50.926;7.080;2023-03-14T15:55:43;12.10;;;2.20;;
10132;SDS011;5106;50.926;7.080;2023-03-14T15:58:18;9.57;;;2.10;;
10132;SDS011;5106;50.926;7.080;2023-03-14T16:00:45;9.83;;;2.23;;
10132;SDS011;5106;50.926;7.080;2023-03-14T16:03:10;8.53;;;2.10;;
10132;SDS011;5106;50.926;7.080;2023-03-14T16:05:37;11.10;;;2.50;;
10132;SDS011;5106;50.926;7.080;2023-03-14T16:08:03;11.43;;;2.17;;
10132;SDS011;5106;50.926;7.080;2023-03-14T16:10:29;8.73;;;2.37;;
10132;SDS011;5106;50.926;7.080;2023-03-14T16:12:55;10.90;;;3.20;;
10132;SDS011;5106;50.926;7.080;2023-03-14T16:15:21;10.37;;;2.57;;
10132;SDS011;5106;50.926;7.080;2023-03-14T16:17:46;9.60;;;2.93;;
10132;SDS011;5106;50.926;7.080;2023-03-14T16:20:13;12.03;;;2.50;;
10132;SDS011;5106;50.926;7.080;2023-03-14T16:22:39;14.83;;;2.70;;